Time;durP1;ratioP1;P1;durP2;ratioP2;P2;SDS_P1;SDS_P2;PMS_P1;PMS_P2;Temp;Humidity;BMP_temperature;BMP_pressure;BME280_temperature;BME280_humidity;BME280_pressure;Samples;Min_cycle;Max_cycle;Signal;HPM_P1;HPM_P2
2023/10/01 00:01:02;;;;;;;35.50;18.40;;;;;;;9.05;100.00;101112.77;105668;1254;60402;-51
2023/10/01 00:03:29;;;;;;;42.10;19.10;;;;;;;9.04;100.00;101113.63;105883;1253;74225;-51
2023/10/01 00:05:58;;;;;;;36.60;17.80;;;;;;;9.03;100.00;101111.05;105744;1259;65077;-51
2023/10/01 00:08:25;;;;;;;32.70;17.00;;;;;;;9.04;100.00;101106.07;105663;1257;71972;-51
2023/10/01 00:10:52;;;;;;;37.40;18.30;;;;;;;9.03;100.00;101105.02;105654;1254;61799;-50
2023/10/01 00:13:20;;;;;;;36.50;18.40;;;;;;;8.99;100.00;101098.66;105811;1254;60759;-51
2023/10/01 00:15:49;;;;;;;37.00;19.70;;;;;;;8.95;100.00;101099.17;105970;1257;73798;-50
2023/10/01 00:18:16;;;;;;;46.10;19.90;;;;;;;8.91;100.00;101098.50;105750;1254;64571;-49
2023/10/01 00:20:43;;;;;;;44.00;19.40;;;;;;;8.88;100.00;101096.44;105732;1254;72649;-51
2023/10/01 00:23:11;;;;;;;47.10;19.00;;;;;;;8.84;100.00;101092.66;105737;1258;61774;-55
2023/10/01 00:25:38;;;;;;;35.80;18.30;;;;;;;8.81;100.00;101094.21;105742;1254;60540;-53
2023/10/01 00:28:06;;;;;;;41.80;18.80;;;;;;;8.79;100.00;101092.14;105750;1258;73878;-53
2023/10/01 00:30:34;;;;;;;37.10;19.20;;;;;;;8.79;100.00;101090.77;105609;1259;64533;-53
2023/10/01 00:33:05;;;;;;;46.70;19.70;;;;;;;8.80;100.00;101087.48;105678;1254;72477;-49
2023/10/01 00:35:32;;;;;;;39.40;20.00;;;;;;;8.78;100.00;101085.79;105616;1257;61759;-50
2023/10/01 00:37:59;;;;;;;43.30;19.80;;;;;;;8.75;100.00;101084.58;105777;1255;60431;-50
2023/10/01 00:40:27;;;;;;;34.00;19.60;;;;;;;8.73;100.00;101081.48;105666;1259;73812;-51
2023/10/01 00:42:54;;;;;;;39.60;21.30;;;;;;;8.73;100.00;101082.86;105727;1259;64805;-50
2023/10/01 00:45:21;;;;;;;41.80;21.70;;;;;;;8.72;100.00;101082.01;105697;1254;72755;-49
2023/10/01 00:47:48;;;;;;;46.10;22.90;;;;;;;8.71;100.00;101080.61;105658;1258;61930;-49
2023/10/01 00:50:18;;;;;;;39.90;17.60;;;;;;;8.68;100.00;101078.38;105611;1254;60456;-51
2023/10/01 00:52:47;;;;;;;40.30;18.70;;;;;;;8.65;100.00;101075.46;105817;1254;73530;-50
2023/10/01 00:55:14;;;;;;;45.50;20.40;;;;;;;8.65;100.00;101077.86;105729;1258;64590;-51
2023/10/01 00:57:41;;;;;;;46.00;19.90;;;;;;;8.64;100.00;101078.56;105686;1254;72645;-51
2023/10/01 01:00:14;;;;;;;37.40;21.60;;;;;;;8.65;100.00;101074.77;105747;1259;60389;-51
2023/10/01 01:05:35;;;;;;;32.50;17.60;;;;;;;8.62;100.00;101072.36;105622;1259;73819;-51
2023/10/01 01:08:20;;;;;;;35.30;17.50;;;;;;;8.62;100.00;101068.23;105784;1258;64650;-50
2023/10/01 01:10:51;;;;;;;31.70;15.90;;;;;;;8.63;100.00;101065.65;105809;1254;72714;-49
2023/10/01 01:13:23;;;;;;;32.90;17.40;;;;;;;8.61;100.00;101069.79;105677;1256;60467;-50
2023/10/01 01:15:51;;;;;;;31.70;15.90;;;;;;;8.60;100.00;101063.27;105813;1255;60413;-50
2023/10/01 01:18:20;;;;;;;25.20;14.90;;;;;;;8.60;100.00;101064.11;105700;1257;73677;-50
2023/10/01 01:20:48;;;;;;;49.70;16.60;;;;;;;8.60;100.00;101060.67;105936;1259;64707;-50
2023/10/01 01:23:17;;;;;;;27.80;15.10;;;;;;;8.60;100.00;101061.02;105659;1254;72666;-52
2023/10/01 01:25:52;;;;;;;31.70;16.50;;;;;;;8.59;100.00;101058.44;105712;1254;60539;-49
2023/10/01 01:28:35;;;;;;;32.00;17.90;;;;;;;8.56;100.00;101062.23;105794;1254;60186;-51
2023/10/01 01:31:03;;;;;;;33.00;16.60;;;;;;;8.51;100.00;101066.35;105905;1257;73699;-50
2023/10/01 01:33:32;;;;;;;33.70;15.60;;;;;;;8.43;100.00;101061.16;105935;1258;64504;-53
2023/10/01 01:35:59;;;;;;;30.20;15.60;;;;;;;8.36;100.00;101062.36;105982;1254;72493;-50
2023/10/01 01:38:27;;;;;;;26.80;16.00;;;;;;;8.31;100.00;101061.67;105843;1259;61804;-51
2023/10/01 01:40:54;;;;;;;35.40;16.90;;;;;;;8.28;100.00;101062.70;105816;1254;60635;-49
2023/10/01 01:43:22;;;;;;;27.60;16.50;;;;;;;8.25;100.00;101058.58;105745;1258;73695;-50
2023/10/01 01:45:54;;;;;;;26.90;16.50;;;;;;;8.20;100.00;101062.85;105694;1259;63137;-50
2023/10/01 01:48:25;;;;;;;35.20;16.10;;;;;;;8.16;100.00;101061.30;105670;1259;72675;-49
2023/10/01 01:50:55;;;;;;;25.60;14.90;;;;;;;8.12;100.00;101062.16;105855;1254;62145;-49
2023/10/01 01:53:22;;;;;;;34.20;15.00;;;;;;;8.07;100.00;101065.25;106046;1254;60485;-51
2023/10/01 01:55:53;;;;;;;27.90;14.00;;;;;;;8.03;100.00;101063.52;105684;1254;73789;-50
2023/10/01 01:58:24;;;;;;;29.80;14.80;;;;;;;8.04;100.00;101062.84;105737;1262;64516;-51
2023/10/01 02:03:37;;;;;;;29.20;15.50;;;;;;;8.03;100.00;101063.36;105838;1259;60380;-51
2023/10/01 02:06:09;;;;;;;25.90;15.10;;;;;;;8.03;100.00;101062.16;105552;1257;252018;-51
2023/10/01 02:10:59;;;;;;;26.20;14.20;;;;;;;8.03;100.00;101064.39;102433;1291;603426;-49
2023/10/01 02:13:27;;;;;;;26.80;13.70;;;;;;;8.01;100.00;101060.09;104893;1270;61735;-51
2023/10/01 02:15:54;;;;;;;27.50;15.30;;;;;;;8.04;100.00;101056.48;104813;1270;59448;-50
2023/10/01 02:18:21;;;;;;;30.70;14.70;;;;;;;8.05;100.00;101049.77;104565;1273;72221;-50
2023/10/01 02:20:51;;;;;;;31.40;16.10;;;;;;;8.04;100.00;101050.29;104919;1269;63615;-51
2023/10/01 02:23:26;;;;;;;26.20;16.70;;;;;;;8.03;100.00;101050.98;104820;1269;235118;-50
2023/10/01 02:25:53;;;;;;;28.00;15.80;;;;;;;8.02;100.00;101053.39;105094;1266;61881;-50
2023/10/01 02:28:22;;;;;;;29.60;15.30;;;;;;;8.00;100.00;101050.47;105151;1267;59337;-50
2023/10/01 02:30:56;;;;;;;30.40;15.80;;;;;;;7.99;100.00;101049.77;105271;1267;72075;-49
2023/10/01 02:33:25;;;;;;;30.80;16.50;;;;;;;7.99;100.00;101042.39;105191;1266;64771;-50
2023/10/01 02:35:58;;;;;;;27.50;15.50;;;;;;;7.96;100.00;101042.88;105259;1264;72390;-50
2023/10/01 02:38:40;;;;;;;28.90;16.20;;;;;;;7.90;100.00;101045.79;105332;1267;60365;-50
2023/10/01 02:41:10;;;;;;;30.80;16.70;;;;;;;7.82;100.00;101045.61;105172;1264;60776;-49
2023/10/01 02:43:41;;;;;;;33.30;15.90;;;;;;;7.76;100.00;101043.88;105138;1264;73013;-49
2023/10/01 02:46:12;;;;;;;32.20;15.60;;;;;;;7.72;100.00;101046.27;105202;1267;64612;-50
2023/10/01 02:48:42;;;;;;;32.20;16.60;;;;;;;7.71;100.00;101046.77;105216;1264;71191;-50
2023/10/01 02:51:15;;;;;;;31.00;15.90;;;;;;;7.69;100.00;101046.25;105251;1267;60979;-53
2023/10/01 02:54:01;;;;;;;34.70;17.30;;;;;;;7.68;100.00;101046.76;105210;1264;59749;-52
2023/10/01 02:56:52;;;;;;;28.00;16.00;;;;;;;7.65;100.00;101048.47;105121;1263;72923;-52
2023/10/01 02:59:20;;;;;;;37.90;18.00;;;;;;;7.63;100.00;101047.96;105146;1267;64666;-51
2023/10/01 03:01:46;;;;;;;86.50;41.30;;;;;;;7.61;100.00;101040.91;105035;1266;72546;-52
2023/10/01 03:04:16;;;;;;;53.30;27.20;;;;;;;7.60;100.00;101043.83;105159;1263;61854;-48
2023/10/01 03:06:55;;;;;;;46.30;23.10;;;;;;;7.61;100.00;101042.29;105257;1266;59630;-49
2023/10/01 03:09:33;;;;;;;46.10;22.20;;;;;;;7.65;100.00;101040.23;104849;1266;73027;-49
2023/10/01 03:15:00;;;;;;;41.40;21.90;;;;;;;7.71;100.00;101041.80;105092;1267;72538;-50
2023/10/01 03:17:34;;;;;;;42.60;22.10;;;;;;;7.72;100.00;101037.85;105170;1269;62018;-49
2023/10/01 03:23:17;;;;;;;40.70;20.10;;;;;;;7.76;100.00;101032.88;104473;1270;73044;-50
2023/10/01 03:28:34;;;;;;;40.10;19.50;;;;;;;7.84;100.00;101024.48;104926;1266;72530;-49
2023/10/01 03:31:08;;;;;;;37.20;18.30;;;;;;;7.86;100.00;101020.70;105081;1269;62058;-50
2023/10/01 03:33:39;;;;;;;31.10;17.80;;;;;;;7.88;100.00;101017.60;105078;1264;60318;-49
2023/10/01 03:36:10;;;;;;;33.70;20.00;;;;;;;7.93;100.00;101018.63;105078;1267;73095;-49
2023/10/01 03:38:48;;;;;;;40.00;20.50;;;;;;;7.96;100.00;101019.52;104977;1265;63277;-49
2023/10/01 03:41:21;;;;;;;35.00;18.80;;;;;;;7.97;100.00;101014.20;105008;1265;72663;-51
2023/10/01 03:44:09;;;;;;;39.00;19.10;;;;;;;7.99;100.00;101007.14;105250;1269;61859;-50
2023/10/01 03:46:45;;;;;;;37.80;19.80;;;;;;;7.99;100.00;101006.63;105056;1269;59679;-50
2023/10/01 03:51:58;;;;;;;;;;;;;;;7.94;100.00;101007.64;105134;1266;64490;-49
2023/10/01 03:54:52;;;;;;;48.60;20.70;;;;;;;7.91;100.00;101008.84;105099;1267;71186;-49
2023/10/01 03:57:17;;;;;;;39.60;21.00;;;;;;;7.88;100.00;101013.13;105108;1268;60931;-49
2023/10/01 03:59:53;;;;;;;38.50;19.00;;;;;;;7.89;100.00;101013.65;105034;1266;60109;-50
2023/10/01 04:05:21;;;;;;;39.40;21.50;;;;;;;7.92;100.00;101009.88;105116;1269;64669;-50
2023/10/01 04:07:49;;;;;;;37.60;19.50;;;;;;;7.94;100.00;101009.20;105130;1267;72467;-49
2023/10/01 04:10:21;;;;;;;40.60;20.00;;;;;;;7.95;100.00;101007.64;105228;1269;61843;-50
2023/10/01 04:12:54;;;;;;;37.00;19.60;;;;;;;7.97;100.00;101005.60;105092;1266;60263;-50
2023/10/01 04:15:27;;;;;;;42.40;20.10;;;;;;;7.98;100.00;101006.45;105027;1265;72099;-51
2023/10/01 04:23:40;;;;;;;40.30;18.60;;;;;;;8.07;100.00;101006.45;105722;1257;61649;-49
2023/10/01 04:26:13;;;;;;;39.60;19.50;;;;;;;8.10;100.00;101005.27;105637;1254;60195;-49
2023/10/01 04:28:44;;;;;;;33.30;19.40;;;;;;;8.14;100.00;101003.02;105573;1254;73046;-51
2023/10/01 04:31:18;;;;;;;35.80;18.90;;;;;;;8.17;100.00;101000.95;105646;1257;64578;-50
2023/10/01 04:33:49;;;;;;;41.20;20.60;;;;;;;8.23;100.00;100998.05;105612;1253;72484;-50
2023/10/01 04:36:17;;;;;;;36.20;20.50;;;;;;;8.29;100.00;100999.07;105641;1254;60694;-51
2023/10/01 04:38:48;;;;;;;43.70;20.80;;;;;;;8.35;100.00;100999.92;105663;1254;59599;-49
2023/10/01 04:41:25;;;;;;;40.60;19.30;;;;;;;8.42;100.00;100995.61;105643;1254;71681;-51
2023/10/01 04:43:52;;;;;;;43.00;18.60;;;;;;;8.49;100.00;100994.95;105699;1257;65026;-51
2023/10/01 04:46:20;;;;;;;47.00;20.50;;;;;;;8.55;100.00;100993.41;105698;1254;72681;-49
2023/10/01 04:48:47;;;;;;;36.80;20.00;;;;;;;8.61;100.00;100994.95;105612;1254;59747;-50
2023/10/01 04:51:14;;;;;;;37.30;19.80;;;;;;;8.67;100.00;100989.94;105750;1254;60286;-51
2023/10/01 04:53:46;;;;;;;31.10;18.40;;;;;;;8.73;100.00;100991.83;105636;1254;73060;-50
2023/10/01 04:56:20;;;;;;;38.00;18.00;;;;;;;8.80;100.00;100989.91;105671;1256;64682;-50
2023/10/01 04:58:54;;;;;;;35.50;17.80;;;;;;;8.89;100.00;100985.60;105604;1254;72640;-49
2023/10/01 05:01:24;;;;;;;32.80;17.00;;;;;;;8.98;100.00;100985.56;105753;1257;62132;-50
2023/10/01 05:03:52;;;;;;;31.40;17.80;;;;;;;9.07;100.00;100984.15;105549;1257;59632;-51
2023/10/01 05:06:19;;;;;;;37.40;17.50;;;;;;;9.17;100.00;100979.11;105665;1254;72947;-51
2023/10/01 05:08:51;;;;;;;31.90;18.50;;;;;;;9.28;100.00;100975.64;105683;1257;64722;-50
2023/10/01 05:11:21;;;;;;;43.10;18.00;;;;;;;9.39;100.00;100971.95;105913;1254;72497;-51
2023/10/01 05:13:51;;;;;;;37.20;17.50;;;;;;;9.51;100.00;100975.34;105765;1257;61792;-50
2023/10/01 05:16:26;;;;;;;34.00;17.30;;;;;;;9.63;100.00;100969.75;105616;1254;60299;-50
2023/10/01 05:19:12;;;;;;;38.00;17.80;;;;;;;9.76;100.00;100971.05;105598;1254;73106;-50
2023/10/01 05:21:50;;;;;;;26.90;17.00;;;;;;;9.94;100.00;100968.34;105656;1254;65214;-55
2023/10/01 05:24:41;;;;;;;34.40;17.60;;;;;;;10.12;100.00;100964.39;105648;1254;72879;-51
2023/10/01 05:27:10;;;;;;;35.50;17.80;;;;;;;10.32;100.00;100965.25;105653;1257;60167;-50
2023/10/01 05:29:39;;;;;;;40.60;18.30;;;;;;;10.51;100.00;100966.14;105791;1254;59745;-53
2023/10/01 05:32:06;;;;;;;32.10;17.50;;;;;;;10.69;100.00;100964.92;105726;1257;73008;-49
2023/10/01 05:34:34;;;;;;;34.40;17.10;;;;;;;10.86;100.00;100964.56;105757;1257;64734;-49
2023/10/01 05:37:12;;;;;;;33.40;17.70;;;;;;;11.04;100.00;100964.70;105697;1257;71339;-48
2023/10/01 05:39:55;;;;;;;31.60;17.40;;;;;;;11.21;100.00;100963.96;105699;1258;61817;-50
2023/10/01 05:42:40;;;;;;;34.90;17.00;;;;;;;11.40;100.00;100969.43;105735;1254;60323;-51
2023/10/01 05:45:18;;;;;;;34.90;18.60;;;;;;;11.56;100.00;100966.11;105831;1257;73015;-50
2023/10/01 05:47:54;;;;;;;39.70;18.20;;;;;;;11.72;100.00;100966.20;105661;1257;64594;-50
2023/10/01 05:50:22;;;;;;;32.80;18.20;;;;;;;11.87;100.00;100964.77;105706;1254;71404;-50
2023/10/01 05:52:50;;;;;;;36.30;16.20;;;;;;;12.02;100.00;100970.27;105707;1254;60570;-51
2023/10/01 05:55:19;;;;;;;38.30;16.70;;;;;;;12.18;100.00;100967.42;105653;1254;59611;-51
2023/10/01 05:57:46;;;;;;;30.00;16.50;;;;;;;12.31;100.00;100972.73;105647;1254;71518;-51
2023/10/01 06:00:17;;;;;;;37.30;16.90;;;;;;;12.45;100.00;100974.91;105715;1259;64536;-50
2023/10/01 06:02:48;;;;;;;32.10;16.80;;;;;;;12.58;100.00;100975.38;105815;1254;72752;-50
2023/10/01 06:05:42;;;;;;;28.70;16.20;;;;;;;12.72;100.00;100976.85;105809;1254;61751;-50
2023/10/01 06:08:15;;;;;;;41.50;16.10;;;;;;;12.85;100.00;100982.98;105590;1254;60312;-52
2023/10/01 06:11:06;;;;;;;42.70;16.40;;;;;;;12.98;100.00;100983.80;105647;1254;73365;-51
2023/10/01 06:13:37;;;;;;;28.60;15.10;;;;;;;13.11;100.00;100986.13;105748;1257;65126;-53
2023/10/01 06:16:15;;;;;;;21.30;14.10;;;;;;;13.24;100.00;100989.31;105638;1258;72686;-50
2023/10/01 06:18:49;;;;;;;36.50;16.90;;;;;;;13.37;100.00;100992.35;105747;1257;60306;-52
2023/10/01 06:21:18;;;;;;;30.50;16.30;;;;;;;13.51;100.00;100997.98;106035;1254;60413;-50
2023/10/01 06:23:51;;;;;;;32.10;15.50;;;;;;;13.64;100.00;101001.33;105667;1254;71813;-52
2023/10/01 06:26:45;;;;;;;31.50;15.90;;;;;;;13.76;100.00;101005.05;105674;1257;64768;-51
2023/10/01 06:29:13;;;;;;;36.00;16.10;;;;;;;13.92;100.00;101016.83;105579;1254;72838;-50
2023/10/01 06:31:48;;;;;;;27.00;16.00;;;;;;;14.06;100.00;101023.09;105663;1257;60503;-50
2023/10/01 06:34:19;;;;;;;;;;;;;;;14.21;100.00;101030.54;105675;1254;60515;-50
2023/10/01 06:36:58;;;;;;;26.80;15.60;;;;;;;14.34;100.00;101040.30;105633;1257;73695;-50
2023/10/01 06:39:25;;;;;;;36.60;15.70;;;;;;;14.47;100.00;101054.89;105704;1259;63567;-51
2023/10/01 06:41:53;;;;;;;34.30;15.90;;;;;;;14.60;100.00;101063.95;105595;1254;72643;-50
2023/10/01 06:44:21;;;;;;;30.00;16.90;;;;;;;14.71;100.00;101075.33;105587;1257;60370;-51
2023/10/01 06:46:49;;;;;;;27.30;15.10;;;;;;;14.83;100.00;101093.45;105723;1253;60428;-50
2023/10/01 06:49:18;;;;;;;26.70;14.60;;;;;;;14.96;100.00;101118.48;105652;1257;73796;-51
2023/10/01 06:51:45;;;;;;;41.00;16.20;;;;;;;15.09;100.00;101156.38;105727;1257;64698;-50
2023/10/01 06:54:13;;;;;;;34.00;15.00;;;;;;;15.23;100.00;101200.90;105819;1254;72676;-52
2023/10/01 06:56:47;;;;;;;28.90;15.10;;;;;;;15.39;100.00;101247.23;105664;1254;61041;-49
2023/10/01 06:59:14;;;;;;;31.50;14.30;;;;;;;15.57;100.00;101306.96;105639;1254;60443;-51
2023/10/01 07:01:47;;;;;;;31.90;14.50;;;;;;;15.74;100.00;101362.71;105652;1257;73862;-49
2023/10/01 07:04:19;;;;;;;31.10;15.20;;;;;;;15.93;100.00;101423.52;105668;1257;64690;-51
2023/10/01 07:06:50;;;;;;;43.60;15.50;;;;;;;16.09;100.00;101474.31;105807;1257;72624;-51
2023/10/01 07:11:57;;;;;;;29.60;13.70;;;;;;;16.40;100.00;101460.44;105710;1253;60479;-50
2023/10/01 07:14:59;;;;;;;37.30;15.40;;;;;;;16.57;100.00;101397.78;105697;1258;73849;-51
2023/10/01 07:17:24;;;;;;;42.20;13.70;;;;;;;16.75;100.00;101225.45;105774;1257;64680;-51
2023/10/01 07:19:59;;;;;;;30.30;12.40;;;;;;;16.91;100.00;101035.80;105708;1254;72577;-50
2023/10/01 07:22:31;;;;;;;25.00;13.60;;;;;;;17.06;100.00;100868.96;105674;1257;60453;-52
2023/10/01 07:25:03;;;;;;;46.00;14.40;;;;;;;17.23;100.00;100725.67;105743;1254;60431;-52
2023/10/01 07:27:30;;;;;;;25.20;13.20;;;;;;;17.39;100.00;100613.70;105831;1257;73655;-49
2023/10/01 07:29:58;;;;;;;29.40;13.80;;;;;;;17.58;100.00;100549.53;105739;1257;64685;-50
2023/10/01 07:32:25;;;;;;;30.50;13.30;;;;;;;17.76;100.00;100463.88;105660;1256;72664;-50
2023/10/01 07:34:58;;;;;;;26.80;12.50;;;;;;;17.94;100.00;100375.04;105608;1258;60349;-48
2023/10/01 07:37:26;;;;;;;29.70;13.00;;;;;;;18.12;100.00;100318.30;105794;1254;60543;-49
2023/10/01 07:40:08;;;;;;;22.70;12.00;;;;;;;18.30;100.00;100297.81;105622;1259;73782;-51
2023/10/01 07:42:46;;;;;;;23.20;13.10;;;;;;;18.53;100.00;100301.11;105602;1259;64644;-50
2023/10/01 07:45:17;;;;;;;29.20;12.50;;;;;;;18.72;100.00;100325.77;105612;1254;72770;-50
2023/10/01 07:47:45;;;;;;;34.00;12.70;;;;;;;18.91;100.00;100357.95;105646;1258;60411;-51
2023/10/01 07:50:12;;;;;;;37.10;12.10;;;;;;;19.11;100.00;100376.66;105692;1254;60422;-51
2023/10/01 07:52:41;;;;;;;31.20;12.20;;;;;;;19.29;100.00;100392.11;105838;1253;73825;-51
2023/10/01 07:55:29;;;;;;;31.30;11.20;;;;;;;19.43;100.00;100403.91;105579;1254;64515;-51
2023/10/01 08:00:47;;;;;;;19.90;10.30;;;;;;;19.80;100.00;100436.84;105701;1256;60357;-51
2023/10/01 08:05:50;;;;;;;29.00;11.50;;;;;;;20.04;100.00;100525.66;105765;1257;73785;-51
2023/10/01 08:08:37;;;;;;;27.00;10.50;;;;;;;20.20;100.00;100575.61;105653;1257;64749;-50
2023/10/01 08:11:37;;;;;;;23.00;10.40;;;;;;;20.38;100.00;100600.34;105694;1254;72639;-52
2023/10/01 08:13:55;;;;;;;25.30;11.10;;;;;;;20.58;100.00;100628.45;105729;1257;60331;-52
2023/10/01 08:16:23;;;;;;;28.70;10.00;;;;;;;20.76;100.00;100661.30;105756;1254;60568;-51
2023/10/01 08:18:57;;;;;;;22.20;12.20;;;;;;;20.92;100.00;100685.99;105868;1254;72530;-51
2023/10/01 08:21:36;;;;;;;30.30;11.80;;;;;;;21.04;93.93;100705.09;105887;1256;64644;-51
2023/10/01 08:24:18;;;;;;;24.50;11.00;;;;;;;21.17;85.46;100724.91;105620;1254;73054;-51
2023/10/01 08:26:57;;;;;;;23.10;11.20;;;;;;;21.40;84.43;100738.28;105692;1257;60916;-50
2023/10/01 08:29:28;;;;;;;23.00;11.10;;;;;;;21.68;80.68;100731.00;105673;1254;60425;-50
2023/10/01 08:34:23;;;;;;;21.30;10.00;;;;;;;22.05;70.89;100646.70;105832;1257;64583;-50
2023/10/01 08:36:55;;;;;;;26.20;11.20;;;;;;;22.20;70.72;100689.02;105856;1254;72660;-49
2023/10/01 08:39:47;;;;;;;26.60;10.90;;;;;;;22.38;68.92;100665.85;105924;1256;60444;-49
2023/10/01 08:42:16;;;;;;;26.70;10.80;;;;;;;22.53;67.36;100657.00;105546;1256;61113;-49
2023/10/01 08:44:51;;;;;;;29.50;10.10;;;;;;;22.73;65.97;100622.84;105624;1257;72603;-50
2023/10/01 08:47:45;;;;;;;21.10;10.00;;;;;;;22.96;64.36;100582.58;105681;1257;64666;-51
2023/10/01 08:50:27;;;;;;;26.20;9.40;;;;;;;23.20;63.00;100551.89;105719;1254;72730;-50
2023/10/01 08:53:09;;;;;;;24.70;9.70;;;;;;;23.36;59.70;100381.29;105565;1258;60408;-50
2023/10/01 08:56:32;;;;;;;26.20;10.40;;;;;;;23.50;58.32;100318.99;105766;1254;60418;-50
2023/10/01 08:58:28;;;;;;;23.00;10.00;;;;;;;23.69;56.31;100191.30;105532;1254;74383;-50
2023/10/01 09:01:15;;;;;;;28.00;11.10;;;;;;;23.85;55.61;100166.14;105736;1257;63120;-52
2023/10/01 09:03:47;;;;;;;29.30;9.50;;;;;;;24.12;55.25;100161.33;105650;1254;72645;-51
2023/10/01 09:06:25;;;;;;;21.70;8.60;;;;;;;24.47;54.60;100109.32;105698;1257;60381;-51
2023/10/01 09:08:59;;;;;;;21.10;8.50;;;;;;;24.73;51.18;99755.83;105573;1254;60642;-51
2023/10/01 09:11:35;;;;;;;28.20;8.10;;;;;;;24.84;49.41;99540.05;105635;1254;73698;-50
2023/10/01 09:14:17;;;;;;;13.90;6.90;;;;;;;24.98;48.16;99448.22;105690;1259;64740;-50
2023/10/01 09:16:45;;;;;;;18.40;6.40;;;;;;;25.03;45.09;99026.80;105574;1254;72720;-50
2023/10/01 09:19:35;;;;;;;16.50;6.40;;;;;;;25.04;46.38;99227.85;105674;1259;60463;-51
2023/10/01 09:22:15;;;;;;;9.40;6.40;;;;;;;25.18;45.76;99179.83;105645;1255;60668;-51
2023/10/01 09:24:55;;;;;;;15.10;6.90;;;;;;;25.29;43.79;98925.58;105685;1254;73844;-51
2023/10/01 09:27:28;;;;;;;16.40;7.70;;;;;;;25.30;43.23;98854.33;105689;1259;64715;-51
2023/10/01 09:32:54;;;;;;;18.20;7.60;;;;;;;25.56;48.64;99644.73;105740;1258;60360;-51
2023/10/01 09:35:38;;;;;;;19.70;7.20;;;;;;;25.70;48.19;99644.38;105774;1254;60534;-51
2023/10/01 09:38:11;;;;;;;21.30;7.10;;;;;;;25.63;47.41;99554.37;106331;1257;73910;-52
2023/10/01 09:40:42;;;;;;;14.90;7.20;;;;;;;25.44;46.75;99469.46;107934;1256;66599;-52
2023/10/01 09:43:18;;;;;;;18.10;6.80;;;;;;;25.38;47.97;99626.27;106294;1254;71726;-49
2023/10/01 09:45:49;;;;;;;18.50;7.10;;;;;;;25.48;48.62;99776.56;105764;1258;60335;-50
2023/10/01 09:48:30;;;;;;;11.30;6.90;;;;;;;25.62;48.48;99771.90;105771;1254;60924;-51
2023/10/01 09:51:19;;;;;;;22.50;8.10;;;;;;;25.71;47.96;99698.17;106489;1255;73626;-53
2023/10/01 09:53:51;;;;;;;17.80;7.90;;;;;;;25.74;47.39;99639.89;108058;1254;63507;-52
2023/10/01 09:56:46;;;;;;;16.70;7.50;;;;;;;25.72;47.70;99664.80;107114;1254;72421;-52
2023/10/01 09:59:15;;;;;;;17.00;8.20;;;;;;;25.78;46.71;99546.66;105838;1254;60708;-50
2023/10/01 10:01:47;;;;;;;20.00;8.10;;;;;;;25.83;46.16;99479.40;107234;1254;60296;-52
2023/10/01 10:04:20;;;;;;;24.00;8.30;;;;;;;25.86;45.49;99389.15;106300;1259;73636;-53
2023/10/01 10:07:02;;;;;;;19.50;8.00;;;;;;;25.83;44.74;99296.11;106971;1258;65946;-52
2023/10/01 10:09:30;;;;;;;18.90;7.30;;;;;;;25.82;44.59;99242.35;106732;1254;72538;-52
2023/10/01 10:12:01;;;;;;;24.90;7.90;;;;;;;25.83;43.74;99179.89;107225;1254;60599;-51
2023/10/01 10:14:29;;;;;;;20.00;7.60;;;;;;;25.82;43.44;99109.16;107323;1254;60421;-53
2023/10/01 10:16:59;;;;;;;13.40;7.50;;;;;;;25.88;43.82;99147.38;107646;1254;73904;-51
2023/10/01 10:19:30;;;;;;;20.30;8.00;;;;;;;25.97;42.94;99051.74;107181;1258;64142;-52
2023/10/01 10:24:37;;;;;;;15.40;7.90;;;;;;;25.93;41.53;98836.77;105845;1254;60316;-50
2023/10/01 10:27:09;;;;;;;16.10;7.80;;;;;;;25.93;41.81;98871.95;106227;1257;60352;-51
2023/10/01 10:32:26;;;;;;;30.40;8.10;;;;;;;26.25;43.04;99050.96;106362;1254;64066;-51
2023/10/01 10:35:03;;;;;;;15.00;7.70;;;;;;;26.50;42.20;98949.90;107370;1254;72418;-52
2023/10/01 10:37:44;;;;;;;21.20;8.00;;;;;;;26.53;41.72;98877.14;107132;1254;60788;-52
2023/10/01 10:42:57;;;;;;;15.00;7.20;;;;;;;26.67;40.82;98756.26;106967;1254;72524;-52
2023/10/01 10:45:31;;;;;;;14.00;7.50;;;;;;;26.59;39.54;98557.86;105747;1258;64352;-49
2023/10/01 10:48:03;;;;;;;17.00;6.80;;;;;;;26.52;40.36;98658.70;105551;1257;72668;-52
2023/10/01 10:50:50;;;;;;;15.30;6.60;;;;;;;26.61;41.23;98763.53;105807;1259;60540;-50
2023/10/01 10:53:25;;;;;;;13.50;6.50;;;;;;;26.79;41.05;98788.52;105571;1255;60518;-50
2023/10/01 10:56:04;;;;;;;14.90;6.30;;;;;;;26.92;41.36;98820.40;105667;1255;73687;-50
2023/10/01 10:58:37;;;;;;;14.80;6.50;;;;;;;27.17;41.06;98807.98;105743;1257;65122;-51
2023/10/01 11:01:19;;;;;;;17.70;6.90;;;;;;;27.37;40.04;98655.98;105748;1254;72982;-51
2023/10/01 11:03:50;;;;;;;30.70;7.30;;;;;;;27.55;40.11;98611.48;105715;1259;60345;-52
2023/10/01 11:06:39;;;;;;;35.80;7.60;;;;;;;27.70;40.31;98640.29;105724;1254;60485;-53
2023/10/01 11:09:22;;;;;;;30.20;7.40;;;;;;;27.87;40.15;98638.90;105702;1258;73824;-50
2023/10/01 11:11:56;;;;;;;26.60;6.60;;;;;;;28.06;39.35;98513.90;105760;1259;64659;-51
2023/10/01 11:14:25;;;;;;;16.30;6.10;;;;;;;28.17;39.72;98541.57;105655;1254;72643;-51
2023/10/01 11:16:52;;;;;;;15.40;6.80;;;;;;;28.16;36.78;98135.09;105737;1257;60334;-50
2023/10/01 11:19:25;;;;;;;14.00;6.40;;;;;;;27.82;35.72;97862.89;105563;1254;60543;-51
2023/10/01 11:21:59;;;;;;;14.30;5.80;;;;;;;27.46;36.72;97944.15;105702;1259;74270;-50
2023/10/01 11:24:42;;;;;;;22.30;6.50;;;;;;;27.31;36.87;98019.05;105866;1259;64545;-51
2023/10/01 11:30:13;;;;;;;9.60;6.20;;;;;;;27.64;37.43;98117.25;105729;1258;60325;-50
2023/10/01 11:35:38;;;;;;;18.40;6.40;;;;;;;27.49;35.53;97844.27;105893;1254;72578;-50
2023/10/01 11:38:11;;;;;;;15.20;6.60;;;;;;;27.35;37.00;97999.05;105695;1257;64725;-50
2023/10/01 11:43:32;;;;;;;17.10;6.60;;;;;;;27.38;36.95;98045.96;105663;1259;60905;-49
2023/10/01 11:46:19;;;;;;;18.10;6.20;;;;;;;27.33;36.28;98017.02;105783;1254;60437;-50
2023/10/01 11:48:59;;;;;;;16.20;5.90;;;;;;;27.21;36.63;98038.30;105711;1259;73825;-52
2023/10/01 11:51:38;;;;;;;22.10;5.70;;;;;;;27.19;36.41;98020.30;105811;1258;66387;-51
2023/10/01 11:54:09;;;;;;;16.90;6.10;;;;;;;27.38;36.48;98052.63;105885;1254;72617;-51
2023/10/01 11:56:43;;;;;;;9.90;6.40;;;;;;;27.59;36.65;98029.49;105669;1257;60350;-51
2023/10/01 11:59:17;;;;;;;19.00;7.20;;;;;;;27.69;35.85;97953.45;105829;1253;60514;-52
2023/10/01 12:01:50;;;;;;;19.80;6.50;;;;;;;27.78;35.39;97849.08;105869;1257;73740;-52
2023/10/01 12:04:24;;;;;;;13.30;5.90;;;;;;;28.06;36.22;97959.46;105761;1254;63805;-51
2023/10/01 12:06:54;;;;;;;10.10;5.60;;;;;;;28.33;34.79;97733.04;105643;1254;72638;-50
2023/10/01 12:09:21;;;;;;;14.30;5.90;;;;;;;28.54;34.34;97682.91;105771;1255;60546;-51
2023/10/01 12:12:04;;;;;;;18.50;5.60;;;;;;;28.51;33.54;97496.32;105851;1257;60435;-52
2023/10/01 12:14:32;;;;;;;27.40;5.30;;;;;;;28.56;33.10;97476.81;105792;1254;73944;-50
2023/10/01 12:17:01;;;;;;;11.70;5.30;;;;;;;28.57;32.67;97380.97;105812;1258;64649;-52
2023/10/01 12:19:29;;;;;;;8.00;5.50;;;;;;;28.51;32.47;97330.16;105790;1258;72434;-51
2023/10/01 12:22:05;;;;;;;9.70;5.30;;;;;;;28.29;31.82;97184.13;105613;1258;60438;-51
2023/10/01 12:24:44;;;;;;;16.00;5.70;;;;;;;28.19;34.03;97474.14;105755;1253;60463;-52
2023/10/01 12:27:37;;;;;;;10.40;5.20;;;;;;;28.33;34.34;97547.84;105813;1254;73875;-53
2023/10/01 12:30:00;;;;;;;10.50;5.50;;;;;;;28.21;33.80;97523.98;105746;1259;64674;-53